createdAt,value
2018-09-28T00:00:48.547Z,21.33
2018-09-28T00:01:52.993Z,20.77
2018-09-28T00:02:57.457Z,23.57
2018-09-28T00:04:01.964Z,14.55
2018-09-28T00:05:07.415Z,13.98
2018-09-28T00:06:11.891Z,17.42
2018-09-28T00:07:16.322Z,18.32
2018-09-28T00:08:21.257Z,17.60
2018-09-28T00:09:26.396Z,14.75
2018-09-28T00:10:31.457Z,19.42
2018-09-28T00:11:35.904Z,13.32
2018-09-28T00:12:40.270Z,17.37
2018-09-28T00:13:45.159Z,17.65
2018-09-28T00:14:49.595Z,16.27
2018-09-28T00:15:54.245Z,17.05
2018-09-28T00:16:58.916Z,16.57
2018-09-28T00:18:03.402Z,13.20
2018-09-28T00:19:07.874Z,17.07
2018-09-28T00:20:12.393Z,17.87
2018-09-28T00:21:17.047Z,16.05
2018-09-28T00:22:21.773Z,16.17
2018-09-28T00:23:26.267Z,16.62
2018-09-28T00:24:30.728Z,15.58
2018-09-28T00:25:35.377Z,14.13
2018-09-28T00:26:40.273Z,16.65
2018-09-28T00:27:44.697Z,17.82
2018-09-28T00:28:49.274Z,14.70
2018-09-28T00:29:54.041Z,16.20
2018-09-28T00:30:58.873Z,14.95
2018-09-28T00:32:03.801Z,18.00
2018-09-28T00:33:08.250Z,11.95
2018-09-28T00:34:12.693Z,13.28
2018-09-28T00:35:17.145Z,13.38
2018-09-28T00:36:21.590Z,20.05
2018-09-28T00:37:26.758Z,16.87
2018-09-28T00:38:36.391Z,17.10
2018-09-28T00:39:40.880Z,17.82
2018-09-28T00:40:45.358Z,15.28
2018-09-28T00:41:49.767Z,18.52
2018-09-28T00:42:54.194Z,13.45
2018-09-28T00:43:58.781Z,15.20
2018-09-28T00:45:03.206Z,12.43
2018-09-28T00:46:07.703Z,15.25
2018-09-28T00:47:12.072Z,17.02
2018-09-28T00:48:16.845Z,20.48
2018-09-28T00:49:21.528Z,16.90
2018-09-28T00:50:25.968Z,33.38
2018-09-28T00:51:30.856Z,16.02
2018-09-28T00:52:35.538Z,17.40
2018-09-28T00:53:40.094Z,20.50
2018-09-28T00:54:44.486Z,17.87
2018-09-28T00:55:48.878Z,20.27
2018-09-28T00:56:53.411Z,28.35
2018-09-28T00:57:57.813Z,20.20
2018-09-28T00:59:02.324Z,12.25
2018-09-28T01:00:06.997Z,13.88
2018-09-28T01:01:11.578Z,12.03
2018-09-28T01:02:16.039Z,15.30
2018-09-28T01:03:20.565Z,19.80
2018-09-28T01:04:25.072Z,17.77
2018-09-28T01:05:30.826Z,16.90
2018-09-28T01:06:35.371Z,17.98
2018-09-28T01:07:39.888Z,20.12
2018-09-28T01:08:50.332Z,17.65
2018-09-28T01:09:54.778Z,15.32
2018-09-28T01:10:59.175Z,14.70
2018-09-28T01:12:03.693Z,17.95
2018-09-28T01:13:08.364Z,13.95
2018-09-28T01:14:12.860Z,19.90
2018-09-28T01:15:17.549Z,15.00
2018-09-28T01:16:22.027Z,21.73
2018-09-28T01:17:26.660Z,12.70
2018-09-28T01:18:31.089Z,15.95
2018-09-28T01:19:36.660Z,9.70
2018-09-28T01:20:41.345Z,13.65
2018-09-28T01:21:46.174Z,11.80
2018-09-28T01:22:50.794Z,21.60
2018-09-28T01:26:02.468Z,16.97
2018-09-28T01:27:07.881Z,15.90
2018-09-28T01:28:13.257Z,18.57
2018-09-28T01:29:17.807Z,23.05
2018-09-28T01:30:22.417Z,15.50
2018-09-28T01:31:26.825Z,17.48
2018-09-28T01:32:31.271Z,21.10
2018-09-28T01:33:35.837Z,16.90
2018-09-28T01:34:40.749Z,14.23
2018-09-28T01:35:45.206Z,13.95
2018-09-28T01:36:49.693Z,12.20
2018-09-28T01:37:54.071Z,13.15
2018-09-28T01:38:58.782Z,14.50
2018-09-28T01:40:03.337Z,14.40
2018-09-28T01:41:07.813Z,12.03
2018-09-28T01:42:12.324Z,12.73
2018-09-28T01:43:16.737Z,11.05
2018-09-28T01:44:21.181Z,19.92
2018-09-28T01:45:25.606Z,11.90
2018-09-28T01:46:30.074Z,15.43
2018-09-28T01:47:34.582Z,15.75
2018-09-28T01:48:39.251Z,14.70
2018-09-28T01:49:43.693Z,15.50
2018-09-28T01:50:48.170Z,14.87
2018-09-28T01:51:52.633Z,15.38
2018-09-28T01:52:57.386Z,21.10
2018-09-28T01:54:02.532Z,13.90
2018-09-28T01:55:07.060Z,14.83
2018-09-28T01:56:11.587Z,14.30
2018-09-28T01:57:16.087Z,20.82
2018-09-28T01:58:20.778Z,17.30
2018-09-28T01:59:25.292Z,20.17
2018-09-28T02:00:29.638Z,19.27
2018-09-28T02:01:34.246Z,20.37
2018-09-28T02:02:42.986Z,17.62
2018-09-28T02:03:48.480Z,19.35
2018-09-28T02:04:57.070Z,15.85
2018-09-28T02:06:01.922Z,17.10
2018-09-28T02:07:06.390Z,17.50
2018-09-28T02:08:10.799Z,18.85
2018-09-28T02:09:15.721Z,16.77
2018-09-28T02:10:20.395Z,20.43
2018-09-28T02:11:24.957Z,16.75
2018-09-28T02:12:29.449Z,15.83
2018-09-28T02:13:33.897Z,12.18
2018-09-28T02:14:38.371Z,24.15
2018-09-28T02:15:43.339Z,13.28
2018-09-28T02:16:47.792Z,14.80
2018-09-28T02:17:52.343Z,22.60
2018-09-28T02:18:56.897Z,21.60
2018-09-28T02:20:01.397Z,16.42
2018-09-28T02:21:05.789Z,15.63
2018-09-28T02:22:10.284Z,16.17
2018-09-28T02:23:14.705Z,16.50
2018-09-28T02:24:19.207Z,15.13
2018-09-28T02:25:23.597Z,18.48
2018-09-28T02:26:28.178Z,11.33
2018-09-28T02:27:32.699Z,13.13
2018-09-28T02:28:37.274Z,18.60
2018-09-28T02:29:41.719Z,12.00
2018-09-28T02:30:46.259Z,16.48
2018-09-28T02:31:51.482Z,13.65
2018-09-28T02:32:55.946Z,18.07
2018-09-28T02:34:00.490Z,15.15
2018-09-28T02:35:05.227Z,15.10
2018-09-28T02:36:09.955Z,14.15
2018-09-28T02:37:14.440Z,17.95
2018-09-28T02:38:18.864Z,12.20
2018-09-28T02:39:23.383Z,13.65
2018-09-28T02:40:28.220Z,12.40
2018-09-28T02:41:33.641Z,19.55
2018-09-28T02:42:38.274Z,16.15
2018-09-28T02:43:42.907Z,14.23
2018-09-28T02:44:47.583Z,16.40
2018-09-28T02:45:52.114Z,12.95
2018-09-28T02:46:56.663Z,13.55
2018-09-28T02:48:01.069Z,12.73
2018-09-28T02:49:06.049Z,13.00
2018-09-28T02:50:10.784Z,10.40
2018-09-28T02:51:15.240Z,15.30
2018-09-28T02:52:19.692Z,13.00
2018-09-28T02:53:24.186Z,10.13
2018-09-28T02:54:28.640Z,15.45
2018-09-28T02:55:33.134Z,9.05
2018-09-28T02:56:38.090Z,12.58
2018-09-28T02:57:42.457Z,10.03
2018-09-28T02:58:46.882Z,14.93
2018-09-28T02:59:52.076Z,18.80
2018-09-28T03:00:57.208Z,10.08
2018-09-28T03:02:01.874Z,17.75
2018-09-28T03:03:06.359Z,14.03
2018-09-28T03:04:12.637Z,10.60
2018-09-28T03:05:17.135Z,8.53
2018-09-28T03:07:24.357Z,11.55
2018-09-28T03:08:29.011Z,27.98
2018-09-28T03:09:33.557Z,16.42
2018-09-28T03:10:37.980Z,12.50
2018-09-28T03:11:42.475Z,14.03
2018-09-28T03:12:46.898Z,13.15
2018-09-28T03:13:51.294Z,11.88
2018-09-28T03:14:55.861Z,10.93
2018-09-28T03:16:00.289Z,11.12
2018-09-28T03:17:04.717Z,11.12
2018-09-28T03:18:12.525Z,12.18
2018-09-28T03:19:17.196Z,13.18
2018-09-28T03:20:21.857Z,15.75
2018-09-28T03:21:26.366Z,14.98
2018-09-28T03:22:30.912Z,11.30
2018-09-28T03:23:36.170Z,20.90
2018-09-28T03:24:41.380Z,15.60
2018-09-28T03:25:45.832Z,11.50
2018-09-28T03:26:50.357Z,13.30
2018-09-28T03:27:54.738Z,17.50
2018-09-28T03:28:59.278Z,13.93
2018-09-28T03:30:03.764Z,16.62
2018-09-28T03:31:08.231Z,13.25
2018-09-28T03:32:12.731Z,12.50
2018-09-28T03:33:17.486Z,11.70
2018-09-28T03:34:22.067Z,14.30
2018-09-28T03:35:29.305Z,13.80
2018-09-28T03:36:33.738Z,18.10
2018-09-28T03:37:39.422Z,17.00
2018-09-28T03:40:40.075Z,14.98
2018-09-28T03:41:44.969Z,9.00
2018-09-28T03:42:51.850Z,12.88
2018-09-28T03:43:56.481Z,14.25
2018-09-28T03:45:01.042Z,10.65
2018-09-28T03:46:05.615Z,20.62
2018-09-28T03:47:10.309Z,14.58
2018-09-28T03:48:15.192Z,10.88
2018-09-28T03:49:19.849Z,13.75
2018-09-28T03:50:24.984Z,18.48
2018-09-28T03:51:30.432Z,11.97
2018-09-28T03:52:34.981Z,24.47
2018-09-28T03:53:39.481Z,17.15
2018-09-28T03:54:43.883Z,10.50
2018-09-28T03:55:48.444Z,12.63
2018-09-28T03:56:54.219Z,13.18
2018-09-28T03:57:58.760Z,19.73
2018-09-28T03:59:03.301Z,13.58
2018-09-28T04:00:09.733Z,13.53
2018-09-28T04:01:14.987Z,14.40
2018-09-28T04:02:20.740Z,17.73
2018-09-28T04:03:26.264Z,16.27
2018-09-28T04:04:30.858Z,17.62
2018-09-28T04:05:35.604Z,29.48
2018-09-28T04:06:40.183Z,18.35
2018-09-28T04:07:45.827Z,16.82
2018-09-28T04:08:50.404Z,27.85
2018-09-28T04:09:54.914Z,21.80
2018-09-28T04:11:00.114Z,23.77
2018-09-28T04:12:05.263Z,26.35
2018-09-28T04:13:09.684Z,19.95
2018-09-28T04:14:14.321Z,15.48
2018-09-28T04:15:18.719Z,28.12
2018-09-28T04:16:23.351Z,18.75
2018-09-28T04:17:27.992Z,25.52
2018-09-28T04:18:33.435Z,14.07
2018-09-28T04:19:37.913Z,21.80
2018-09-28T04:20:43.410Z,17.05
2018-09-28T04:22:04.291Z,21.95
2018-09-28T04:23:08.829Z,18.90
2018-09-28T04:24:13.405Z,21.33
2018-09-28T04:25:18.028Z,21.93
2018-09-28T04:26:23.056Z,21.82
2018-09-28T04:27:27.908Z,20.90
2018-09-28T04:28:32.507Z,22.90
2018-09-28T04:29:37.434Z,22.45
2018-09-28T04:30:43.058Z,23.70
2018-09-28T04:31:47.613Z,23.22
2018-09-28T04:32:52.273Z,20.65
2018-09-28T04:33:56.867Z,24.20
2018-09-28T04:35:01.499Z,26.48
2018-09-28T04:36:06.287Z,21.20
2018-09-28T04:37:11.023Z,31.97
2018-09-28T04:38:15.857Z,28.17
2018-09-28T04:39:21.232Z,20.92
2018-09-28T04:40:25.903Z,28.10
2018-09-28T04:41:30.481Z,18.77
2018-09-28T04:42:35.324Z,16.73
2018-09-28T04:43:40.399Z,15.38
2018-09-28T04:44:44.998Z,19.12
2018-09-28T04:45:49.714Z,13.75
2018-09-28T04:46:55.464Z,15.72
2018-09-28T04:48:00.481Z,15.48
2018-09-28T04:49:06.176Z,22.05
2018-09-28T04:50:12.884Z,18.82
2018-09-28T04:51:17.586Z,18.92
2018-09-28T04:52:23.236Z,15.78
2018-09-28T04:53:28.176Z,22.48
2018-09-28T04:54:34.007Z,15.58
2018-09-28T04:55:39.541Z,19.67
2018-09-28T04:56:44.228Z,17.50
2018-09-28T04:57:49.977Z,15.98
2018-09-28T04:58:54.858Z,35.25
2018-09-28T04:59:59.456Z,13.83
2018-09-28T05:01:04.748Z,13.58
2018-09-28T05:02:11.119Z,12.13
2018-09-28T05:03:15.757Z,17.32
2018-09-28T05:04:21.403Z,15.70
2018-09-28T05:05:27.002Z,14.65
2018-09-28T05:06:31.720Z,11.33
2018-09-28T05:07:36.424Z,12.75
2018-09-28T05:08:41.784Z,12.13
2018-09-28T05:09:47.933Z,12.50
2018-09-28T05:10:52.947Z,14.70
2018-09-28T05:11:57.668Z,11.68
2018-09-28T05:13:03.499Z,22.82
2018-09-28T05:14:09.367Z,30.23
2018-09-28T05:15:13.976Z,21.42
2018-09-28T05:16:21.640Z,21.23
2018-09-28T05:17:27.614Z,23.45
2018-09-28T05:18:32.226Z,21.85
2018-09-28T05:19:37.533Z,19.92
2018-09-28T05:20:42.174Z,16.52
2018-09-28T05:21:49.547Z,18.27
2018-09-28T05:22:57.857Z,17.37
2018-09-28T05:24:04.489Z,24.18
2018-09-28T05:25:12.514Z,18.77
2018-09-28T05:26:17.729Z,25.20
2018-09-28T05:27:22.588Z,24.25
2018-09-28T05:28:28.550Z,22.10
2018-09-28T05:29:37.613Z,27.40
2018-09-28T05:30:44.974Z,23.15
2018-09-28T05:32:17.595Z,26.57
2018-09-28T05:33:23.291Z,22.90
2018-09-28T05:34:28.153Z,23.38
2018-09-28T05:35:33.882Z,16.12
2018-09-28T05:36:42.505Z,35.92
2018-09-28T05:37:47.274Z,24.20
2018-09-28T05:38:54.682Z,23.20
2018-09-28T05:41:29.714Z,28.75
2018-09-28T05:42:35.302Z,25.17
2018-09-28T05:43:40.097Z,34.45
2018-09-28T05:44:45.731Z,20.35
2018-09-28T05:45:51.360Z,25.23
2018-09-28T05:46:56.048Z,29.72
2018-09-28T05:48:00.578Z,16.42
2018-09-28T05:49:06.243Z,20.35
2018-09-28T05:50:11.019Z,21.65
2018-09-28T05:51:15.896Z,23.35
2018-09-28T05:52:21.153Z,21.60
2018-09-28T05:53:27.548Z,30.60
2018-09-28T05:54:32.363Z,18.48
2018-09-28T05:55:37.040Z,22.85
2018-09-28T05:56:41.606Z,20.15
2018-09-28T05:57:46.859Z,38.23
2018-09-28T05:58:57.041Z,17.12
2018-09-28T06:00:06.606Z,24.40
2018-09-28T06:01:16.146Z,22.77
2018-09-28T06:02:26.114Z,14.35
2018-09-28T06:03:30.816Z,17.70
2018-09-28T06:04:40.849Z,19.40
2018-09-28T06:05:50.429Z,15.32
2018-09-28T06:06:58.349Z,14.60
2018-09-28T06:08:03.320Z,22.77
2018-09-28T06:09:12.229Z,20.85
2018-09-28T06:10:17.046Z,20.72
2018-09-28T06:11:23.584Z,19.87
2018-09-28T06:12:28.189Z,17.20
2018-09-28T06:13:34.565Z,24.43
2018-09-28T06:14:39.304Z,19.15
2018-09-28T06:15:44.599Z,18.52
2018-09-28T06:16:49.300Z,18.92
2018-09-28T06:17:54.809Z,18.52
2018-09-28T06:18:59.475Z,19.87
2018-09-28T06:20:05.024Z,17.57
2018-09-28T06:21:10.584Z,27.17
2018-09-28T06:22:16.713Z,21.73
2018-09-28T06:23:23.738Z,20.20
2018-09-28T06:24:28.585Z,19.82
2018-09-28T06:25:33.805Z,19.65
2018-09-28T06:26:38.512Z,19.80
2018-09-28T06:27:43.369Z,18.45
2018-09-28T06:28:48.253Z,16.97
2018-09-28T06:29:52.885Z,17.42
2018-09-28T06:30:58.070Z,16.23
2018-09-28T06:32:02.847Z,22.93
2018-09-28T06:33:07.509Z,19.48
2018-09-28T06:34:14.459Z,25.92
2018-09-28T06:35:20.152Z,20.27
2018-09-28T06:36:24.798Z,20.65
2018-09-28T06:37:29.609Z,20.62
2018-09-28T06:38:34.948Z,19.60
2018-09-28T06:39:40.453Z,17.40
2018-09-28T06:40:46.171Z,18.20
2018-09-28T06:41:50.915Z,16.95
2018-09-28T06:42:56.042Z,20.35
2018-09-28T06:44:02.190Z,17.48
2018-09-28T06:45:07.893Z,32.05
2018-09-28T06:46:13.861Z,17.70
2018-09-28T06:47:20.280Z,16.95
2018-09-28T06:48:26.576Z,18.07
2018-09-28T06:49:31.467Z,21.50
2018-09-28T06:50:36.341Z,12.85
2018-09-28T06:51:43.495Z,19.62
2018-09-28T06:52:48.486Z,22.60
2018-09-28T06:53:53.159Z,17.50
2018-09-28T06:54:58.222Z,22.80
2018-09-28T06:56:03.318Z,21.35
2018-09-28T06:57:08.369Z,19.40
2018-09-28T06:58:13.840Z,24.52
2018-09-28T06:59:19.971Z,21.52
2018-09-28T07:00:26.086Z,16.50
2018-09-28T07:01:30.626Z,25.25
2018-09-28T07:02:38.421Z,19.02
2018-09-28T07:03:44.173Z,20.35
2018-09-28T07:04:48.982Z,30.40
2018-09-28T07:05:53.640Z,20.17
2018-09-28T07:06:58.174Z,31.80
2018-09-28T07:08:02.865Z,22.27
2018-09-28T07:09:11.292Z,19.92
2018-09-28T07:10:15.785Z,19.20
2018-09-28T07:11:21.574Z,21.45
2018-09-28T07:12:26.913Z,18.02
2018-09-28T07:13:31.511Z,24.15
2018-09-28T07:14:37.366Z,22.22
2018-09-28T07:15:45.906Z,17.27
2018-09-28T07:16:52.362Z,14.68
2018-09-28T07:17:57.251Z,19.82
2018-09-28T07:19:04.056Z,15.88
2018-09-28T07:20:09.411Z,15.20
2018-09-28T07:21:14.084Z,24.70
2018-09-28T07:22:18.633Z,20.17
2018-09-28T07:23:57.040Z,15.88
2018-09-28T07:25:01.926Z,17.45
2018-09-28T07:26:12.282Z,17.98
2018-09-28T07:27:43.544Z,24.32
2018-09-28T07:28:57.246Z,16.60
2018-09-28T07:30:04.502Z,19.62
2018-09-28T07:31:11.231Z,27.80
2018-09-28T07:32:17.441Z,22.67
2018-09-28T07:33:22.678Z,18.52
2018-09-28T07:34:28.765Z,16.93
2018-09-28T07:35:33.502Z,14.87
2018-09-28T07:36:39.502Z,17.35
2018-09-28T07:37:43.909Z,21.05
2018-09-28T07:38:49.330Z,24.60
2018-09-28T07:39:54.710Z,15.63
2018-09-28T07:40:59.745Z,18.80
2018-09-28T07:42:06.329Z,18.80
2018-09-28T07:43:11.458Z,20.85
2018-09-28T07:44:16.346Z,25.10
2018-09-28T07:45:20.881Z,22.85
2018-09-28T07:46:26.288Z,18.65
2018-09-28T07:47:31.210Z,20.92
2018-09-28T07:48:36.245Z,25.82
2018-09-28T07:49:40.934Z,19.75
2018-09-28T07:50:48.294Z,28.02
2018-09-28T07:51:53.419Z,21.70
2018-09-28T07:52:58.244Z,23.60
2018-09-28T07:54:03.985Z,20.90
2018-09-28T07:55:08.775Z,40.50
2018-09-28T07:56:14.211Z,29.02
2018-09-28T07:57:21.557Z,23.60
2018-09-28T07:58:29.437Z,25.15
2018-09-28T07:59:34.407Z,29.67
2018-09-28T08:00:39.270Z,28.05
2018-09-28T08:01:43.971Z,25.88
2018-09-28T08:02:49.099Z,23.55
2018-09-28T08:03:53.809Z,31.52
2018-09-28T08:04:58.665Z,32.55
2018-09-28T08:06:03.461Z,25.60
2018-09-28T08:07:08.560Z,33.60
2018-09-28T08:08:14.489Z,23.05
2018-09-28T08:09:19.265Z,34.63
2018-09-28T08:10:24.852Z,35.23
2018-09-28T08:11:30.572Z,28.40
2018-09-28T08:12:35.598Z,33.23
2018-09-28T08:13:41.179Z,35.43
2018-09-28T08:14:45.861Z,26.93
2018-09-28T08:15:52.774Z,29.92
2018-09-28T08:16:58.161Z,37.00
2018-09-28T08:18:05.650Z,64.15
2018-09-28T08:19:13.399Z,34.92
2018-09-28T08:20:18.894Z,30.25
2018-09-28T08:21:23.489Z,33.05
2018-09-28T08:22:28.531Z,37.70
2018-09-28T08:23:35.180Z,38.45
2018-09-28T08:24:43.020Z,34.75
2018-09-28T08:25:48.237Z,40.67
2018-09-28T08:26:53.018Z,33.67
2018-09-28T08:27:58.884Z,43.10
2018-09-28T08:29:04.283Z,32.95
2018-09-28T08:30:09.266Z,55.03
2018-09-28T08:31:14.172Z,48.00
2018-09-28T08:32:18.944Z,35.85
2018-09-28T08:33:23.561Z,47.83
2018-09-28T08:34:28.393Z,47.67
2018-09-28T08:35:33.310Z,41.98
2018-09-28T08:36:38.308Z,41.92
2018-09-28T08:37:43.399Z,40.60
2018-09-28T08:38:51.038Z,38.42
2018-09-28T08:39:56.352Z,45.65
2018-09-28T08:41:02.247Z,42.70
2018-09-28T08:42:07.863Z,33.23
2018-09-28T08:43:13.135Z,36.53
2018-09-28T08:44:19.282Z,36.00
2018-09-28T08:45:26.848Z,41.77
2018-09-28T08:46:31.882Z,45.90
2018-09-28T08:47:37.496Z,35.43
2018-09-28T08:48:43.139Z,48.65
2018-09-28T08:54:49.639Z,46.25
2018-09-28T08:55:56.378Z,47.70
2018-09-28T08:57:03.076Z,48.35
2018-09-28T08:58:10.010Z,46.15
2018-09-28T08:59:14.719Z,44.18
2018-09-28T09:00:20.285Z,48.60
2018-09-28T09:01:24.781Z,49.65
2018-09-28T09:02:29.840Z,53.17
2018-09-28T09:03:34.618Z,50.52
2018-09-28T09:04:49.133Z,54.83
2018-09-28T09:05:56.799Z,52.45
2018-09-28T09:07:03.053Z,61.70
2018-09-28T09:08:08.941Z,47.65
2018-09-28T09:09:15.333Z,75.97
2018-09-28T09:10:23.663Z,54.53
2018-09-28T09:11:32.230Z,54.40
2018-09-28T09:12:37.576Z,47.45
2018-09-28T09:13:44.927Z,55.17
2018-09-28T09:14:50.176Z,51.70
2018-09-28T09:15:56.169Z,61.05
2018-09-28T09:17:00.939Z,65.08
2018-09-28T09:18:11.361Z,55.50
2018-09-28T09:19:18.359Z,67.17
2018-09-28T09:20:22.769Z,58.10
2018-09-28T09:21:29.034Z,64.82
2018-09-28T09:22:33.738Z,57.15
2018-09-28T09:23:38.565Z,67.75
2018-09-28T09:24:43.105Z,53.90
2018-09-28T09:25:47.553Z,60.15
2018-09-28T09:26:53.341Z,65.60
2018-09-28T09:27:58.052Z,58.02
2018-09-28T09:29:05.107Z,59.35
2018-09-28T09:30:10.499Z,65.17
2018-09-28T09:31:15.569Z,61.45
2018-09-28T09:32:20.365Z,69.42
2018-09-28T09:33:26.159Z,67.95
2018-09-28T09:34:31.325Z,85.05
2018-09-28T09:35:37.629Z,75.62
2018-09-28T09:36:42.565Z,59.83
2018-09-28T09:37:47.334Z,68.42
2018-09-28T09:38:54.323Z,67.15
2018-09-28T09:39:59.194Z,82.40
2018-09-28T09:41:03.913Z,67.12
2018-09-28T09:42:10.308Z,77.10
2018-09-28T09:43:15.628Z,82.57
2018-09-28T09:44:20.149Z,76.35
2018-09-28T09:45:24.773Z,76.85
2018-09-28T09:46:30.433Z,76.40
2018-09-28T09:47:35.318Z,78.70
2018-09-28T09:48:39.919Z,78.72
2018-09-28T09:49:47.449Z,79.05
2018-09-28T09:50:53.259Z,77.60
2018-09-28T09:51:57.998Z,78.90
2018-09-28T09:53:02.790Z,79.92
2018-09-28T09:54:06.777Z,81.85
2018-09-28T09:55:11.526Z,73.33
2018-09-28T09:56:17.817Z,80.12
2018-09-28T09:57:22.323Z,79.90
2018-09-28T09:58:27.642Z,75.72
2018-09-28T09:59:34.992Z,83.97
2018-09-28T10:00:45.606Z,81.35
2018-09-28T10:01:56.314Z,81.00
2018-09-28T10:03:01.179Z,78.62
2018-09-28T10:04:11.405Z,78.52
2018-09-28T10:05:19.648Z,79.90
2018-09-28T10:06:26.531Z,74.12
2018-09-28T10:07:33.566Z,78.35
2018-09-28T10:08:41.256Z,77.00
2018-09-28T10:09:51.047Z,91.20
2018-09-28T10:10:59.922Z,77.58
2018-09-28T10:12:08.497Z,76.60
2018-09-28T10:13:14.015Z,79.17
2018-09-28T10:14:19.529Z,63.63
2018-09-28T10:15:30.724Z,70.85
2018-09-28T10:16:35.794Z,74.60
2018-09-28T10:17:41.461Z,67.58
2018-09-28T10:18:51.441Z,62.88
2018-09-28T10:19:57.315Z,69.32
2018-09-28T10:21:04.611Z,66.72
2018-09-28T10:22:11.674Z,66.40
2018-09-28T10:23:20.213Z,58.83
2018-09-28T10:24:27.158Z,58.33
2018-09-28T10:25:33.662Z,67.67
2018-09-28T10:26:45.526Z,51.50
2018-09-28T10:27:50.905Z,52.67
2018-09-28T10:28:56.688Z,51.95
2018-09-28T10:30:03.670Z,55.95
2018-09-28T10:31:08.567Z,51.30
2018-09-28T10:32:13.879Z,56.18
2018-09-28T10:33:20.280Z,60.33
2018-09-28T10:34:25.630Z,51.80
2018-09-28T10:35:31.742Z,46.33
2018-09-28T10:36:37.807Z,49.48
2018-09-28T10:37:44.352Z,51.88
2018-09-28T10:38:49.662Z,44.67
2018-09-28T10:39:55.230Z,57.43
2018-09-28T10:41:00.544Z,45.25
2018-09-28T10:42:05.272Z,51.65
2018-09-28T10:43:10.002Z,53.35
2018-09-28T10:44:16.660Z,42.85
2018-09-28T10:45:21.466Z,65.45
2018-09-28T10:46:27.093Z,49.00
2018-09-28T10:47:35.773Z,41.90
2018-09-28T10:48:41.397Z,42.85
2018-09-28T10:49:55.786Z,39.33
2018-09-28T10:51:02.990Z,37.95
2018-09-28T10:52:08.526Z,48.42
2018-09-28T10:53:14.897Z,48.83
2018-09-28T10:54:20.381Z,42.90
2018-09-28T10:55:26.490Z,34.78
2018-09-28T10:56:33.979Z,34.10
2018-09-28T10:57:40.678Z,42.48
2018-09-28T10:58:47.399Z,33.65
2018-09-28T10:59:53.312Z,39.00
2018-09-28T11:00:58.359Z,33.55
2018-09-28T11:02:03.378Z,41.83
2018-09-28T11:03:09.400Z,28.80
2018-09-28T11:04:14.507Z,29.12
2018-09-28T11:05:20.649Z,25.77
2018-09-28T11:06:25.887Z,26.65
2018-09-28T11:07:39.978Z,26.62
2018-09-28T11:10:45.705Z,23.12
2018-09-28T11:14:05.171Z,22.50
2018-09-28T11:15:17.831Z,22.60
2018-09-28T11:16:34.739Z,22.30
2018-09-28T11:17:42.334Z,17.35
2018-09-28T11:18:59.873Z,20.10
2018-09-28T11:20:07.576Z,22.07
2018-09-28T11:21:18.307Z,19.35
2018-09-28T11:22:25.899Z,18.00
2018-09-28T11:23:31.057Z,25.50
2018-09-28T11:24:43.326Z,27.65
2018-09-28T11:25:48.493Z,20.57
2018-09-28T11:26:53.377Z,22.85
2018-09-28T11:27:58.760Z,21.68
2018-09-28T11:29:05.167Z,18.70
2018-09-28T11:30:11.273Z,21.25
2018-09-28T11:31:18.456Z,32.65
2018-09-28T11:32:23.672Z,25.10
2018-09-28T11:33:30.808Z,23.92
2018-09-28T11:34:36.310Z,17.95
2018-09-28T11:35:42.441Z,23.12
2018-09-28T11:36:48.950Z,20.90
2018-09-28T11:38:01.781Z,24.90
2018-09-28T11:39:07.623Z,24.35
2018-09-28T11:40:18.540Z,22.98
2018-09-28T11:41:25.260Z,25.02
2018-09-28T11:42:30.895Z,22.85
2018-09-28T11:43:37.109Z,17.95
2018-09-28T11:44:44.350Z,31.00
2018-09-28T11:45:49.806Z,16.48
2018-09-28T11:46:54.559Z,20.15
2018-09-28T11:47:59.432Z,29.72
2018-09-28T11:49:04.359Z,22.98
2018-09-28T11:50:24.313Z,22.20
2018-09-28T11:51:29.691Z,20.30
2018-09-28T11:52:42.005Z,25.35
2018-09-28T11:53:46.794Z,26.82
2018-09-28T11:54:52.697Z,22.13
2018-09-28T11:55:57.792Z,18.50
2018-09-28T11:57:06.348Z,19.60
2018-09-28T11:58:11.512Z,23.55
2018-09-28T11:59:17.597Z,19.65
2018-09-28T12:00:22.612Z,14.20
2018-09-28T12:01:28.320Z,17.62
2018-09-28T12:02:44.780Z,14.35
2018-09-28T12:03:49.996Z,13.15
2018-09-28T12:04:55.357Z,11.00
2018-09-28T12:06:02.887Z,17.85
2018-09-28T12:07:08.400Z,13.22
2018-09-28T12:08:15.371Z,20.50
2018-09-28T12:09:20.854Z,11.63
2018-09-28T12:10:25.755Z,15.90
2018-09-28T12:13:06.358Z,16.05
2018-09-28T12:17:54.324Z,18.10
2018-09-28T12:19:01.010Z,15.70
2018-09-28T12:20:08.929Z,16.05
2018-09-28T12:21:14.943Z,19.85
2018-09-28T12:22:21.427Z,15.53
2018-09-28T12:23:32.312Z,14.13
2018-09-28T12:24:39.591Z,17.73
2018-09-28T12:25:47.153Z,20.10
2018-09-28T12:26:53.720Z,22.25
2018-09-28T12:28:01.843Z,14.43
2018-09-28T12:29:09.995Z,18.40
2018-09-28T12:30:16.672Z,13.10
2018-09-28T12:31:22.518Z,11.95
2018-09-28T12:33:03.314Z,13.03
2018-09-28T12:34:31.008Z,18.05
2018-09-28T12:35:40.638Z,16.75
2018-09-28T12:36:50.097Z,26.90
2018-09-28T12:37:55.130Z,15.95
2018-09-28T12:39:01.594Z,17.85
2018-09-28T12:40:07.832Z,20.27
2018-09-28T12:41:13.783Z,25.12
2018-09-28T12:42:19.277Z,23.38
2018-09-28T12:43:24.057Z,15.75
2018-09-28T12:44:30.928Z,21.02
2018-09-28T12:45:36.281Z,12.23
2018-09-28T12:46:41.308Z,23.10
2018-09-28T12:47:46.124Z,24.07
2018-09-28T12:48:51.811Z,17.82
2018-09-28T12:49:56.997Z,24.45
2018-09-28T12:51:02.058Z,22.42
2018-09-28T12:52:06.939Z,11.63
2018-09-28T12:53:14.265Z,13.78
2018-09-28T12:54:20.940Z,23.87
2018-09-28T12:55:31.274Z,12.53
2018-09-28T12:56:38.234Z,17.73
2018-09-28T12:57:44.412Z,20.68
2018-09-28T12:58:50.012Z,15.43
2018-09-28T12:59:56.472Z,23.47
2018-09-28T13:01:08.086Z,18.52
2018-09-28T13:02:16.702Z,21.75
2018-09-28T13:03:21.712Z,25.85
2018-09-28T13:04:27.885Z,15.05
2018-09-28T13:05:43.151Z,13.85
2018-09-28T13:06:49.823Z,19.15
2018-09-28T13:07:54.801Z,28.12
2018-09-28T13:09:01.305Z,13.13
2018-09-28T13:10:07.330Z,14.28
2018-09-28T13:11:14.068Z,14.45
2018-09-28T13:12:20.225Z,14.70
2018-09-28T13:13:37.913Z,22.30
2018-09-28T13:14:42.778Z,15.10
2018-09-28T13:15:51.373Z,14.83
2018-09-28T13:16:56.482Z,12.37
2018-09-28T13:18:01.504Z,20.25
2018-09-28T13:19:06.124Z,21.40
2018-09-28T13:20:10.769Z,13.03
2018-09-28T13:21:19.192Z,14.38
2018-09-28T13:22:23.914Z,18.35
2018-09-28T13:23:31.657Z,22.67
2018-09-28T13:24:36.657Z,18.95
2018-09-28T13:25:44.499Z,16.00
2018-09-28T13:26:49.556Z,18.95
2018-09-28T13:27:54.830Z,11.88
2018-09-28T13:29:03.595Z,23.55
2018-09-28T13:30:09.370Z,18.62
2018-09-28T13:31:15.368Z,9.63
2018-09-28T13:32:21.254Z,18.05
2018-09-28T13:33:26.305Z,16.55
2018-09-28T13:34:32.563Z,15.93
2018-09-28T13:35:39.363Z,18.42
2018-09-28T13:36:45.326Z,16.40
2018-09-28T13:37:50.681Z,18.55
2018-09-28T13:38:56.884Z,23.52
2018-09-28T13:40:04.766Z,22.58
2018-09-28T13:41:15.556Z,22.98
2018-09-28T13:42:22.616Z,12.65
2018-09-28T13:43:27.337Z,18.90
2018-09-28T13:44:32.134Z,14.87
2018-09-28T13:45:38.913Z,16.95
2018-09-28T13:46:47.702Z,25.32
2018-09-28T13:47:55.983Z,17.52
2018-09-28T13:49:05.885Z,25.80
2018-09-28T13:50:14.126Z,24.77
2018-09-28T13:51:25.355Z,19.23
2018-09-28T13:52:30.859Z,21.68
2018-09-28T13:53:40.080Z,16.32
2018-09-28T13:54:46.866Z,17.42
2018-09-28T13:55:52.678Z,17.30
2018-09-28T13:56:59.428Z,16.90
2018-09-28T13:58:05.719Z,21.97
2018-09-28T13:59:41.635Z,25.32
2018-09-28T14:00:49.456Z,24.23
2018-09-28T14:01:55.375Z,20.25
2018-09-28T14:03:05.600Z,26.77
2018-09-28T14:04:14.850Z,17.42
2018-09-28T14:05:24.405Z,21.40
2018-09-28T14:06:34.770Z,16.30
2018-09-28T14:07:50.307Z,22.30
2018-09-28T14:08:57.678Z,16.75
2018-09-28T14:11:26.284Z,24.50
2018-09-28T14:12:36.081Z,28.15
2018-09-28T14:13:42.431Z,28.07
2018-09-28T14:14:47.378Z,30.40
2018-09-28T14:15:54.239Z,21.62
2018-09-28T14:17:04.606Z,23.55
2018-09-28T14:18:10.733Z,26.70
2018-09-28T14:19:16.733Z,24.20
2018-09-28T14:20:24.157Z,21.68
2018-09-28T14:21:28.792Z,26.70
2018-09-28T14:22:45.838Z,28.83
2018-09-28T14:23:55.304Z,23.90
2018-09-28T14:25:00.751Z,30.43
2018-09-28T14:26:08.203Z,45.48
2018-09-28T14:27:12.948Z,20.68
2018-09-28T14:28:20.553Z,22.58
2018-09-28T14:29:25.975Z,24.80
2018-09-28T14:30:31.830Z,24.23
2018-09-28T14:31:42.619Z,24.60
2018-09-28T14:32:50.050Z,23.55
2018-09-28T14:33:59.271Z,29.45